Hovedside
METAR-TAF:

METAR-TAF

Lufthavner :

Mo i Rana, Norge

Mo i Rana lufthavn

breddegrad: 66-22N, lengdegrad: 014-18E, høyde over havet: 7 m

Gjeldene værobservasjon

Denne rapporten ble laget for 27 minutter siden, klokken 04:20 UTC
Vind 3 kt fra Øst
Temperatur -4°C
Luftfuktighet 86%
Trykk 1008 hPa
Sikt 10 km eller mer
Få skyer i en høyde av 5000 ft

METAR: ENRA 250420Z 08003KT 9999 FEW050 M04/M06 Q1008

Tid: 06:47 (04:47 UTC)

Varsel

Denne rapporten ble laget for 2 timer og 47 minutter siden, klokken 02:00 UTC
Varsel gyldig fra 25. klokken 05 UTC til 25. klokken 12 UTC
Vind 5 kt fra skiftende retning
Sikt 10 km eller mer
Få skyer i en høyde av 5000 ft

TAF: ENRA 250200Z 2505/2512 VRB05KT 9999 FEW050

Værobservasjoner og værvarsel for over 4000 flyplasser (METAR- og TAF-rapporter).

Tilgjengelige stasjoner er representert av de røde og gule prikkene på kartet.

Hold musepekeren over prikken for å se navnet på stasjonen.

Klikk så for å se værobservasjoner og -varsler.

For å forandre kartet kan du klikke på den grønne knappen med svart kryss for å zoome inn, på den grønne knappen med strek for å zoome ut, eller på de grønne pilene for å se tilstøtende kart.


METAR-TAF: